Terminal Aerodrome Forecast
Issued by NWS

Home | Current Version | Previous Version | Text Only | Print | Product List | Glossary On
Versions: 1 2 3 4 5 6 7 8 9 10 11 12 13 14 15 16 17 18 19 20 21
000
FTUS46 KSTO 181100
TAFRDD
TAF
KRDD 181138Z 1812/1912 16004KT P6SM FEW009 BKN015 OVC025
      TEMPO 1812/1816 3SM BR OVC009
     FM182000 18006KT P6SM BKN050
     FM190400 18005KT 5SM -RA BR BKN015 OVC025=

USA.gov is the U.S. government's official web portal to all federal, state and local government web resources and services.